Time;durP1;ratioP1;P1;durP2;ratioP2;P2;SDS_P1;SDS_P2;PMS_P1;PMS_P2;Temp;Humidity;BMP_temperature;BMP_pressure;BME280_temperature;BME280_humidity;BME280_pressure;Samples;Min_cycle;Max_cycle;Signal;HPM_P1;HPM_P2
2023/08/04 00:02:21;;;;;;;2.33;0.70;;;14.60;99.90;;;;;;4976869;28;20041;-81
2023/08/04 00:04:46;;;;;;;1.33;0.60;;;14.70;99.90;;;;;;4989092;28;20122;-81
2023/08/04 00:07:12;;;;;;;1.10;0.50;;;14.70;99.90;;;;;;4991320;28;20030;-81
2023/08/04 00:09:38;;;;;;;1.02;0.50;;;14.70;99.90;;;;;;4991030;28;20031;-80
2023/08/04 00:12:04;;;;;;;0.52;0.40;;;14.70;99.90;;;;;;4997672;28;20034;-82
2023/08/04 00:14:30;;;;;;;1.08;0.40;;;14.60;99.90;;;;;;4989173;28;20057;-82
2023/08/04 00:16:55;;;;;;;1.27;0.70;;;14.60;99.90;;;;;;4986705;28;20035;-81
2023/08/04 00:19:21;;;;;;;2.60;0.55;;;14.60;99.90;;;;;;4982838;28;20042;-81
2023/08/04 00:21:47;;;;;;;2.70;0.60;;;14.60;99.90;;;;;;4987231;28;20034;-80
2023/08/04 00:24:13;;;;;;;2.63;1.15;;;14.60;99.90;;;;;;4975190;28;20569;-82
2023/08/04 00:26:38;;;;;;;1.10;0.50;;;14.60;99.90;;;;;;4977193;28;20054;-82
2023/08/04 00:29:04;;;;;;;2.25;0.85;;;14.60;99.90;;;;;;4972093;28;20402;-81
2023/08/04 00:31:30;;;;;;;0.85;0.50;;;14.60;99.90;;;;;;4988331;28;20034;-81
2023/08/04 00:33:55;;;;;;;4.88;0.68;;;14.50;99.90;;;;;;4978073;28;20034;-81
2023/08/04 00:36:21;;;;;;;3.15;0.80;;;14.50;99.90;;;;;;4990585;28;20069;-81
2023/08/04 00:38:47;;;;;;;1.65;0.65;;;14.60;99.90;;;;;;4975816;28;20133;-82
2023/08/04 00:41:13;;;;;;;4.32;0.80;;;14.60;99.90;;;;;;4995256;28;20028;-81
2023/08/04 00:43:38;;;;;;;1.65;0.70;;;14.60;99.90;;;;;;4985784;28;20031;-80
2023/08/04 00:46:04;;;;;;;1.75;0.55;;;14.60;99.90;;;;;;4988016;28;20127;-80
2023/08/04 00:48:30;;;;;;;2.05;0.80;;;14.60;99.90;;;;;;4980114;28;20027;-81
2023/08/04 00:50:57;;;;;;;0.73;0.55;;;14.70;99.90;;;;;;4977481;28;20068;-79
2023/08/04 00:53:22;;;;;;;2.53;0.75;;;14.70;99.90;;;;;;4974850;28;20395;-79
2023/08/04 00:55:49;;;;;;;3.22;1.05;;;14.70;99.90;;;;;;4973459;28;20034;-82
2023/08/04 00:58:15;;;;;;;0.93;0.70;;;14.80;99.90;;;;;;4990252;28;20134;-80
2023/08/04 01:00:41;;;;;;;1.75;0.70;;;14.80;99.90;;;;;;4970058;28;20073;-78
2023/08/04 01:03:07;;;;;;;2.75;0.70;;;14.80;99.90;;;;;;4969557;28;20105;-81
2023/08/04 01:05:44;;;;;;;1.05;0.60;;;14.80;99.90;;;;;;4993235;28;20026;-80
2023/08/04 01:08:23;;;;;;;1.05;0.45;;;14.80;99.90;;;;;;4984214;28;20038;-81
2023/08/04 01:10:58;;;;;;;2.10;0.70;;;14.80;99.90;;;;;;4981939;28;20066;-81
2023/08/04 01:13:24;;;;;;;3.40;0.50;;;14.80;99.90;;;;;;4984061;28;20081;-82
2023/08/04 01:15:52;;;;;;;1.60;0.55;;;14.80;99.90;;;;;;4987235;28;20026;-82
2023/08/04 01:18:21;;;;;;;3.03;0.95;;;14.80;99.90;;;;;;4960889;28;20368;-83
2023/08/04 01:20:48;;;;;;;1.73;0.70;;;14.80;99.90;;;;;;4965591;28;20502;-81
2023/08/04 01:23:14;;;;;;;1.50;0.57;;;14.80;99.90;;;;;;4980224;28;20065;-81
2023/08/04 01:25:41;;;;;;;2.63;0.95;;;14.80;99.90;;;;;;4984044;28;20373;-81
2023/08/04 01:28:14;;;;;;;0.95;0.40;;;14.80;99.90;;;;;;4988852;28;20026;-79
2023/08/04 01:30:43;;;;;;;0.80;0.60;;;14.70;99.90;;;;;;4991447;28;20039;-79
2023/08/04 01:33:09;;;;;;;4.47;0.60;;;14.70;99.90;;;;;;4965848;28;20042;-81
2023/08/04 01:35:35;;;;;;;2.45;0.70;;;14.70;99.90;;;;;;4977460;28;20130;-80
2023/08/04 01:38:01;;;;;;;4.47;0.80;;;14.70;99.90;;;;;;4981591;28;20578;-84
2023/08/04 01:40:26;;;;;;;1.88;0.70;;;14.70;99.90;;;;;;4969687;28;20054;-82
2023/08/04 01:42:52;;;;;;;5.20;0.75;;;14.70;99.90;;;;;;4976530;28;20085;-83
2023/08/04 01:45:19;;;;;;;2.55;0.77;;;14.70;99.90;;;;;;4986341;28;20038;-81
2023/08/04 01:47:47;;;;;;;3.28;0.88;;;14.70;99.90;;;;;;4972693;28;20511;-80
2023/08/04 01:50:13;;;;;;;3.10;0.70;;;14.60;99.90;;;;;;4992439;28;20053;-81
2023/08/04 01:52:39;;;;;;;2.85;0.93;;;14.60;99.90;;;;;;4961835;28;20467;-82
2023/08/04 01:55:06;;;;;;;2.55;0.80;;;14.60;99.90;;;;;;4974181;28;20070;-82
2023/08/04 01:57:31;;;;;;;1.30;0.65;;;14.50;99.90;;;;;;4971818;28;20026;-80
2023/08/04 01:59:57;;;;;;;3.25;0.80;;;14.60;99.90;;;;;;4969526;28;20034;-82
2023/08/04 02:02:23;;;;;;;2.13;0.75;;;14.60;99.90;;;;;;4969847;28;20055;-81
2023/08/04 02:04:49;;;;;;;1.38;0.70;;;14.50;99.90;;;;;;4989430;28;20041;-81
2023/08/04 02:07:14;;;;;;;1.98;1.00;;;14.50;99.90;;;;;;4957389;28;20090;-82
2023/08/04 02:09:41;;;;;;;2.78;0.77;;;14.50;99.90;;;;;;4976857;28;20038;-80
2023/08/04 02:12:08;;;;;;;1.38;1.00;;;14.40;99.90;;;;;;4972956;28;20092;-82
2023/08/04 02:14:33;;;;;;;2.47;0.82;;;14.40;99.90;;;;;;4976610;28;20042;-82
2023/08/04 02:16:59;;;;;;;1.92;0.80;;;14.40;99.90;;;;;;5004069;28;20040;-85
2023/08/04 02:19:25;;;;;;;4.88;0.93;;;14.40;99.90;;;;;;4988351;28;20042;-82
2023/08/04 02:21:51;;;;;;;3.08;0.82;;;14.40;99.90;;;;;;4953321;28;20119;-83
2023/08/04 02:24:17;;;;;;;3.95;0.90;;;14.30;99.90;;;;;;4976588;28;20031;-82
2023/08/04 02:26:46;;;;;;;1.95;1.15;;;14.30;99.90;;;;;;4976476;28;20110;-82
2023/08/04 02:29:12;;;;;;;3.05;0.90;;;14.30;99.90;;;;;;4973216;28;20035;-80
2023/08/04 02:31:38;;;;;;;3.13;0.90;;;14.20;99.90;;;;;;4972175;28;20018;-81
2023/08/04 02:34:04;;;;;;;1.85;0.75;;;14.20;99.90;;;;;;4989971;28;20033;-81
2023/08/04 02:36:30;;;;;;;2.45;0.80;;;14.20;99.90;;;;;;4982853;28;20057;-82
2023/08/04 02:38:56;;;;;;;4.82;0.93;;;14.10;99.90;;;;;;4978016;28;20041;-82
2023/08/04 02:41:22;;;;;;;1.33;1.10;;;14.10;99.90;;;;;;4977253;28;20031;-81
2023/08/04 02:43:48;;;;;;;3.08;0.93;;;14.10;99.90;;;;;;4946878;28;20037;-82
2023/08/04 02:46:14;;;;;;;2.08;0.90;;;14.10;99.90;;;;;;4988852;28;20054;-81
2023/08/04 02:48:40;;;;;;;2.05;0.90;;;14.10;99.90;;;;;;4987397;28;20034;-81
2023/08/04 02:51:11;;;;;;;1.70;0.90;;;14.10;99.90;;;;;;4986511;28;20026;-82
2023/08/04 02:53:41;;;;;;;3.45;1.00;;;14.10;99.90;;;;;;4968313;28;20062;-82
2023/08/04 02:56:12;;;;;;;2.38;1.00;;;14.00;99.90;;;;;;4974087;28;20042;-82
2023/08/04 02:58:39;;;;;;;3.33;1.10;;;13.90;99.90;;;;;;4993039;28;20058;-82
2023/08/04 03:01:05;;;;;;;1.60;0.80;;;13.90;99.90;;;;;;4971058;28;20563;-82
2023/08/04 03:03:32;;;;;;;1.73;0.98;;;13.90;99.90;;;;;;4982402;28;20050;-80
2023/08/04 03:06:02;;;;;;;1.30;0.90;;;13.90;99.90;;;;;;4977058;28;20041;-81
2023/08/04 03:08:29;;;;;;;1.33;1.02;;;13.80;99.90;;;;;;4986468;28;20035;-82
2023/08/04 03:11:13;;;;;;;3.53;1.10;;;13.80;99.90;;;;;;4990123;28;20054;-80
2023/08/04 03:13:39;;;;;;;5.70;1.08;;;13.70;99.90;;;;;;4993543;28;20027;-82
2023/08/04 03:16:05;;;;;;;1.13;1.00;;;13.60;99.90;;;;;;5004852;28;20026;-83
2023/08/04 03:18:31;;;;;;;1.48;0.95;;;13.50;99.90;;;;;;4991050;28;20042;-82
2023/08/04 03:21:00;;;;;;;2.08;0.93;;;13.50;99.90;;;;;;4998292;28;20026;-82
2023/08/04 03:23:26;;;;;;;1.75;1.00;;;13.50;99.90;;;;;;4989001;28;20109;-82
2023/08/04 03:25:52;;;;;;;1.85;0.98;;;13.40;99.90;;;;;;4997056;28;20058;-82
2023/08/04 03:28:18;;;;;;;2.05;0.95;;;13.40;99.90;;;;;;4987547;28;20085;-80
2023/08/04 03:30:43;;;;;;;3.53;1.67;;;13.40;99.90;;;;;;4995174;28;20684;-81
2023/08/04 03:33:09;;;;;;;1.50;1.00;;;13.30;99.90;;;;;;4985018;28;20034;-80
2023/08/04 03:35:35;;;;;;;1.90;1.20;;;13.40;99.90;;;;;;4994364;28;20046;-79
2023/08/04 03:38:02;;;;;;;3.45;1.20;;;13.40;99.90;;;;;;4994575;28;20520;-81
2023/08/04 03:40:28;;;;;;;2.80;1.13;;;13.40;99.90;;;;;;4998482;28;20907;-80
2023/08/04 03:42:54;;;;;;;2.38;0.90;;;13.50;99.90;;;;;;4991433;28;20363;-82
2023/08/04 03:45:20;;;;;;;1.48;0.93;;;13.50;99.90;;;;;;4978960;28;20038;-81
2023/08/04 03:47:45;;;;;;;4.10;1.13;;;13.60;99.90;;;;;;4991039;28;20490;-82
2023/08/04 03:50:11;;;;;;;2.53;1.23;;;13.60;99.90;;;;;;4992386;28;20426;-83
2023/08/04 03:52:37;;;;;;;4.20;1.30;;;13.70;99.90;;;;;;4988956;28;20058;-80
2023/08/04 03:55:06;;;;;;;1.45;1.00;;;13.70;99.90;;;;;;4976021;28;20093;-82
2023/08/04 03:57:31;;;;;;;2.75;1.25;;;13.80;99.90;;;;;;4989043;28;20506;-80
2023/08/04 03:59:58;;;;;;;3.55;1.02;;;13.80;99.90;;;;;;4983980;28;20035;-81
2023/08/04 04:02:24;;;;;;;3.67;1.38;;;13.80;99.90;;;;;;4988332;28;20149;-81
2023/08/04 04:04:49;;;;;;;3.60;1.17;;;13.80;99.90;;;;;;4955400;28;20565;-82
2023/08/04 04:07:15;;;;;;;5.55;1.13;;;13.80;99.90;;;;;;4992304;28;20031;-84
2023/08/04 04:09:41;;;;;;;1.70;1.10;;;13.80;99.90;;;;;;4974099;28;20034;-80
2023/08/04 04:12:07;;;;;;;2.17;1.00;;;13.80;99.90;;;;;;4994255;28;20034;-81
2023/08/04 04:14:33;;;;;;;1.20;0.98;;;13.80;99.90;;;;;;4995218;28;20403;-80
2023/08/04 04:16:58;;;;;;;2.80;1.00;;;13.80;99.90;;;;;;4992792;28;20069;-81
2023/08/04 04:19:24;;;;;;;1.52;0.85;;;13.90;99.90;;;;;;4989325;28;20049;-81
2023/08/04 04:21:50;;;;;;;4.03;1.10;;;13.90;99.90;;;;;;4961982;28;20031;-79
2023/08/04 04:24:16;;;;;;;1.33;1.13;;;13.90;99.90;;;;;;4995404;28;20030;-81
2023/08/04 04:26:42;;;;;;;1.83;1.00;;;13.90;99.90;;;;;;5000580;28;20450;-82
2023/08/04 04:29:08;;;;;;;1.15;1.00;;;13.90;99.90;;;;;;4990483;28;20038;-82
2023/08/04 04:31:33;;;;;;;1.20;0.90;;;13.90;99.90;;;;;;4990054;28;20765;-82
2023/08/04 04:33:59;;;;;;;2.58;1.17;;;14.00;99.90;;;;;;4978342;28;20026;-82
2023/08/04 04:36:25;;;;;;;4.75;1.20;;;14.00;99.90;;;;;;4987716;28;20034;-82
2023/08/04 04:38:51;;;;;;;3.33;1.00;;;14.00;99.90;;;;;;4990597;28;20034;-80
2023/08/04 04:41:16;;;;;;;3.72;1.95;;;14.00;99.90;;;;;;4986139;28;20030;-80
2023/08/04 04:43:42;;;;;;;4.82;1.15;;;14.00;99.90;;;;;;4987717;28;20031;-80
2023/08/04 04:46:09;;;;;;;2.65;1.63;;;14.10;99.90;;;;;;4986506;28;20042;-83
2023/08/04 04:48:35;;;;;;;2.45;1.00;;;14.10;99.90;;;;;;4956486;28;20042;-80
2023/08/04 04:51:01;;;;;;;1.40;0.70;;;14.10;99.90;;;;;;4985167;28;20113;-81
2023/08/04 04:53:27;;;;;;;1.52;0.80;;;14.10;99.90;;;;;;4966400;28;20042;-82
2023/08/04 04:55:55;;;;;;;5.95;0.98;;;14.20;99.90;;;;;;4987498;28;20405;-81
2023/08/04 04:58:21;;;;;;;3.83;1.00;;;14.20;99.90;;;;;;4968865;28;20566;-82
2023/08/04 05:00:47;;;;;;;3.20;1.20;;;14.20;99.90;;;;;;4979430;28;20125;-82
2023/08/04 05:03:12;;;;;;;2.83;0.98;;;14.20;99.90;;;;;;4984990;28;20039;-81
2023/08/04 05:05:38;;;;;;;2.80;1.00;;;14.20;99.90;;;;;;4987550;28;20033;-80
2023/08/04 05:08:04;;;;;;;8.90;1.40;;;14.20;99.90;;;;;;4981268;28;20041;-82
2023/08/04 05:10:30;;;;;;;4.95;1.17;;;14.20;99.90;;;;;;4994575;28;20038;-81
2023/08/04 05:12:56;;;;;;;1.67;1.05;;;14.20;99.90;;;;;;4970486;28;20026;-82
2023/08/04 05:15:22;;;;;;;2.90;1.10;;;14.20;99.90;;;;;;4985387;28;20031;-82
2023/08/04 05:17:47;;;;;;;1.08;0.90;;;14.20;99.90;;;;;;4968139;28;20395;-83
2023/08/04 05:20:13;;;;;;;6.00;1.20;;;14.30;99.90;;;;;;4997349;28;20062;-83
2023/08/04 05:22:43;;;;;;;2.65;1.10;;;14.20;99.90;;;;;;4992476;28;20038;-83
2023/08/04 05:25:09;;;;;;;1.70;1.20;;;14.30;99.90;;;;;;4976790;28;20042;-82
2023/08/04 05:27:35;;;;;;;2.58;1.63;;;14.30;99.90;;;;;;4983976;28;20044;-82
2023/08/04 05:30:01;;;;;;;7.03;1.45;;;14.40;99.90;;;;;;4991778;28;20046;-83
2023/08/04 05:32:27;;;;;;;3.00;1.15;;;14.40;99.90;;;;;;4991612;28;20037;-83
2023/08/04 05:34:53;;;;;;;2.25;1.02;;;14.50;99.90;;;;;;4993282;28;20419;-81
2023/08/04 05:37:19;;;;;;;1.98;1.40;;;14.50;99.90;;;;;;4987472;28;20034;-82
2023/08/04 05:39:44;;;;;;;2.85;1.48;;;14.60;99.90;;;;;;4989960;28;20082;-82
2023/08/04 05:42:10;;;;;;;2.70;1.52;;;14.60;99.90;;;;;;4975082;28;20666;-83
2023/08/04 05:44:36;;;;;;;3.33;1.20;;;14.70;99.90;;;;;;4990416;28;20038;-82
2023/08/04 05:47:02;;;;;;;4.15;1.95;;;14.70;99.90;;;;;;4976018;28;20445;-82
2023/08/04 05:49:30;;;;;;;3.08;1.55;;;14.80;99.90;;;;;;4978388;28;20026;-82
2023/08/04 05:51:56;;;;;;;2.17;1.50;;;14.80;99.90;;;;;;4995519;28;20033;-82
2023/08/04 05:54:22;;;;;;;3.95;1.50;;;14.80;99.90;;;;;;4989405;28;20026;-82
2023/08/04 05:56:48;;;;;;;5.55;2.05;;;14.80;99.90;;;;;;4990191;28;20019;-82
2023/08/04 05:59:13;;;;;;;2.95;1.90;;;14.80;99.90;;;;;;4991414;28;20027;-82
2023/08/04 06:01:39;;;;;;;1.88;1.63;;;14.80;99.90;;;;;;4968677;28;20403;-82
2023/08/04 06:04:05;;;;;;;2.13;1.60;;;14.80;99.90;;;;;;4977235;28;20046;-83
2023/08/04 06:06:31;;;;;;;2.10;1.58;;;14.90;99.90;;;;;;4985694;28;20027;-82
2023/08/04 06:08:56;;;;;;;3.45;1.88;;;14.90;99.90;;;;;;4995254;28;20041;-83
2023/08/04 06:11:22;;;;;;;7.28;1.80;;;14.80;99.90;;;;;;4994922;28;20034;-81
2023/08/04 06:13:48;;;;;;;3.95;2.00;;;14.90;99.90;;;;;;4990724;28;20102;-82
2023/08/04 06:16:14;;;;;;;3.40;1.90;;;14.80;99.90;;;;;;4986629;28;20031;-81
2023/08/04 06:18:40;;;;;;;6.38;2.03;;;14.90;99.90;;;;;;4993179;28;20051;-81
2023/08/04 06:21:06;;;;;;;4.57;1.83;;;15.10;99.90;;;;;;4995284;28;20418;-82
2023/08/04 06:23:32;;;;;;;4.38;1.80;;;15.40;99.90;;;;;;4960765;28;20106;-81
2023/08/04 06:25:58;;;;;;;4.05;2.00;;;15.70;99.90;;;;;;4971600;28;20077;-82
2023/08/04 06:28:24;;;;;;;1.73;1.52;;;16.00;99.90;;;;;;4989611;28;20035;-81
2023/08/04 06:30:50;;;;;;;1.75;1.65;;;16.40;99.90;;;;;;4986002;28;20137;-82
2023/08/04 06:33:16;;;;;;;2.80;1.40;;;16.80;99.90;;;;;;4981445;28;20038;-82
2023/08/04 06:35:44;;;;;;;3.20;1.60;;;17.10;99.90;;;;;;4993224;28;20031;-82
2023/08/04 06:38:10;;;;;;;2.03;1.60;;;17.30;99.90;;;;;;4992561;28;20055;-84
2023/08/04 06:40:36;;;;;;;2.08;1.50;;;17.30;99.90;;;;;;4986483;28;20472;-80
2023/08/04 06:43:02;;;;;;;2.17;1.88;;;17.20;99.90;;;;;;4977866;28;20034;-82
2023/08/04 06:45:28;;;;;;;1.73;1.63;;;17.30;99.90;;;;;;4992127;28;20061;-82
2023/08/04 06:47:54;;;;;;;4.25;2.10;;;17.30;99.90;;;;;;4989355;28;20058;-83
2023/08/04 06:50:20;;;;;;;1.58;1.45;;;17.40;99.90;;;;;;4994081;28;20391;-82
2023/08/04 06:53:05;;;;;;;1.73;1.60;;;17.80;99.90;;;;;;4974578;28;20058;-79
2023/08/04 06:55:31;;;;;;;3.35;1.90;;;18.10;99.90;;;;;;4972688;28;20053;-81
2023/08/04 06:57:56;;;;;;;2.35;1.30;;;18.50;99.90;;;;;;5003725;28;20045;-81
2023/08/04 07:00:22;;;;;;;2.65;1.65;;;18.90;99.90;;;;;;4973944;28;20031;-81
2023/08/04 07:02:48;;;;;;;3.03;1.15;;;19.40;99.90;;;;;;4978530;28;20043;-82
2023/08/04 07:05:15;;;;;;;1.88;1.27;;;19.90;99.90;;;;;;4993291;28;20046;-83
2023/08/04 07:07:42;;;;;;;1.50;1.15;;;20.20;99.90;;;;;;4990276;28;20031;-81
2023/08/04 07:10:10;;;;;;;1.83;1.30;;;20.40;99.90;;;;;;4993283;28;20030;-79
2023/08/04 07:12:35;;;;;;;1.60;1.10;;;20.50;99.90;;;;;;4991308;28;20030;-79
2023/08/04 07:15:01;;;;;;;3.60;1.58;;;20.50;99.90;;;;;;4989669;28;20045;-81
2023/08/04 07:17:27;;;;;;;1.92;0.90;;;20.40;99.90;;;;;;4989929;28;20042;-80
2023/08/04 07:19:53;;;;;;;1.25;1.08;;;20.00;99.90;;;;;;4986549;28;20027;-80
2023/08/04 07:22:19;;;;;;;1.27;1.17;;;19.80;99.90;;;;;;4994964;28;20042;-79
2023/08/04 07:24:47;;;;;;;1.45;1.00;;;19.70;99.90;;;;;;4997770;28;20080;-81
2023/08/04 07:27:13;;;;;;;6.55;1.20;;;19.40;99.90;;;;;;4977005;28;20034;-81
2023/08/04 07:29:38;;;;;;;2.05;1.40;;;19.30;99.90;;;;;;4997590;28;20398;-81
2023/08/04 07:32:05;;;;;;;2.75;2.40;;;19.10;99.90;;;;;;4975066;28;20081;-81
2023/08/04 07:34:31;;;;;;;6.45;4.85;;;19.10;99.90;;;;;;4991200;28;20043;-83
2023/08/04 07:36:57;;;;;;;1.98;1.40;;;18.90;99.90;;;;;;4976855;28;20034;-81
2023/08/04 07:39:23;;;;;;;1.98;1.48;;;18.90;99.90;;;;;;4993469;28;20024;-79
2023/08/04 07:41:49;;;;;;;2.95;1.23;;;19.20;99.90;;;;;;4999328;28;20041;-81
2023/08/04 07:44:15;;;;;;;4.75;1.45;;;19.50;99.90;;;;;;4991390;28;20054;-79
2023/08/04 07:46:41;;;;;;;1.25;1.15;;;19.60;99.90;;;;;;4988867;28;20030;-84
2023/08/04 07:49:06;;;;;;;1.80;1.35;;;19.80;99.90;;;;;;4954200;28;20027;-83
2023/08/04 07:51:35;;;;;;;1.60;1.50;;;19.80;99.90;;;;;;4993365;28;20038;-83
2023/08/04 07:54:01;;;;;;;2.22;1.10;;;19.70;99.90;;;;;;4971571;28;20041;-83
2023/08/04 07:56:33;;;;;;;1.88;1.27;;;19.80;99.90;;;;;;4972251;28;20026;-80
2023/08/04 07:58:59;;;;;;;2.05;1.20;;;19.90;99.90;;;;;;4983109;28;20034;-82
2023/08/04 08:01:25;;;;;;;2.33;1.25;;;20.00;99.90;;;;;;4976585;28;20085;-83
2023/08/04 08:03:53;;;;;;;1.45;1.13;;;20.10;99.90;;;;;;4973561;28;20047;-80
2023/08/04 08:06:18;;;;;;;2.15;1.15;;;20.30;99.90;;;;;;4996354;28;20094;-82
2023/08/04 08:08:47;;;;;;;2.20;1.45;;;20.40;99.90;;;;;;4991760;28;20054;-79
2023/08/04 08:11:13;;;;;;;2.97;1.15;;;20.50;99.90;;;;;;4973381;28;20022;-83
2023/08/04 08:13:39;;;;;;;1.52;1.05;;;20.50;99.90;;;;;;4987579;28;20061;-81
2023/08/04 08:16:13;;;;;;;0.85;0.85;;;20.70;99.90;;;;;;4992025;28;20038;-78
2023/08/04 08:18:39;;;;;;;1.58;0.90;;;20.70;99.90;;;;;;4995303;28;20030;-82
2023/08/04 08:21:08;;;;;;;0.65;0.65;;;20.50;99.90;;;;;;4996610;28;20046;-80
2023/08/04 08:23:35;;;;;;;2.45;0.80;;;20.50;99.90;;;;;;4993901;28;20545;-81
2023/08/04 08:26:03;;;;;;;2.28;0.85;;;20.40;99.90;;;;;;4993010;28;20033;-82
2023/08/04 08:28:29;;;;;;;2.25;1.02;;;20.20;99.90;;;;;;4967309;28;20516;-80
2023/08/04 08:30:55;;;;;;;3.33;0.95;;;19.90;99.90;;;;;;5000072;28;20041;-82
2023/08/04 08:33:21;;;;;;;1.77;0.80;;;19.80;99.90;;;;;;5005163;28;20026;-83
2023/08/04 08:35:47;;;;;;;1.20;0.90;;;19.70;99.90;;;;;;4991872;28;20089;-81
2023/08/04 08:38:13;;;;;;;7.82;4.38;;;20.00;99.90;;;;;;4997313;28;20467;-82
2023/08/04 08:40:38;;;;;;;3.72;0.82;;;20.30;99.90;;;;;;4985565;28;20535;-81
2023/08/04 08:43:04;;;;;;;2.53;1.40;;;20.60;99.90;;;;;;4988773;28;20356;-83
2023/08/04 08:45:32;;;;;;;2.60;1.20;;;20.70;99.90;;;;;;4990754;28;20026;-82
2023/08/04 08:47:58;;;;;;;2.88;0.80;;;20.90;99.90;;;;;;4999842;28;20045;-81
2023/08/04 08:50:27;;;;;;;2.60;1.48;;;21.00;99.90;;;;;;4992101;28;20125;-81
2023/08/04 08:53:11;;;;;;;2.38;1.42;;;20.80;99.90;;;;;;4984785;28;20022;-82
2023/08/04 08:55:38;;;;;;;2.35;1.10;;;20.90;99.90;;;;;;4988068;28;20027;-83
2023/08/04 08:58:05;;;;;;;1.50;1.30;;;20.80;99.90;;;;;;4988960;28;20038;-82
2023/08/04 09:00:31;;;;;;;1.73;1.60;;;20.60;99.90;;;;;;4992539;28;20069;-82
2023/08/04 09:02:58;;;;;;;3.22;1.40;;;20.50;99.90;;;;;;4994796;28;20037;-82
2023/08/04 09:05:24;;;;;;;1.40;1.30;;;20.40;99.90;;;;;;4990242;28;20038;-81
2023/08/04 09:07:49;;;;;;;1.60;1.50;;;20.40;99.90;;;;;;4987256;28;20031;-83
2023/08/04 09:10:15;;;;;;;2.53;1.58;;;20.40;99.90;;;;;;4985441;28;20031;-82
2023/08/04 09:12:44;;;;;;;2.20;1.13;;;20.40;99.90;;;;;;4984976;28;20356;-81
2023/08/04 09:15:10;;;;;;;8.75;6.00;;;20.40;99.90;;;;;;4988681;28;20451;-83
2023/08/04 09:17:39;;;;;;;1.10;1.10;;;20.70;99.90;;;;;;4993434;28;20058;-80
2023/08/04 09:20:10;;;;;;;1.80;1.20;;;20.80;99.90;;;;;;4992198;28;20034;-82
2023/08/04 09:22:43;;;;;;;1.48;1.00;;;20.70;99.90;;;;;;4991090;28;20030;-82
2023/08/04 09:25:09;;;;;;;2.15;1.15;;;20.80;99.90;;;;;;4985548;28;20536;-81
2023/08/04 09:27:42;;;;;;;1.02;0.88;;;20.80;99.90;;;;;;4991663;28;20033;-81
2023/08/04 09:30:10;;;;;;;1.27;0.85;;;20.70;99.90;;;;;;4989965;28;20537;-82
2023/08/04 09:32:44;;;;;;;1.60;0.95;;;20.70;99.90;;;;;;4990832;28;20027;-81
2023/08/04 09:35:10;;;;;;;1.77;0.88;;;20.60;99.90;;;;;;4988025;28;20095;-81
2023/08/04 09:37:37;;;;;;;1.27;1.17;;;20.60;99.90;;;;;;4992108;28;20045;-79
2023/08/04 09:40:15;;;;;;;1.88;1.10;;;20.50;99.90;;;;;;4985408;28;20030;-81
2023/08/04 09:42:44;;;;;;;0.90;0.88;;;20.50;99.90;;;;;;4987811;28;20043;-81
2023/08/04 09:45:17;;;;;;;1.67;0.80;;;20.30;99.90;;;;;;4968439;28;20038;-80
2023/08/04 09:47:48;;;;;;;2.97;1.25;;;20.20;99.90;;;;;;4988542;28;20101;-81
2023/08/04 09:50:14;;;;;;;3.22;0.98;;;20.00;99.90;;;;;;4970714;28;20082;-81
2023/08/04 09:52:40;;;;;;;1.85;1.05;;;20.00;99.90;;;;;;4976245;28;20089;-80
2023/08/04 09:55:09;;;;;;;2.42;1.05;;;20.00;99.90;;;;;;4989444;28;20049;-81
2023/08/04 09:57:36;;;;;;;1.00;0.85;;;19.80;99.90;;;;;;4991970;28;20473;-80
2023/08/04 10:00:04;;;;;;;1.13;1.00;;;19.70;99.90;;;;;;4992135;28;20030;-81
2023/08/04 10:02:30;;;;;;;1.60;0.98;;;19.70;99.90;;;;;;4987671;28;20102;-81
2023/08/04 10:04:57;;;;;;;1.33;0.90;;;19.50;99.90;;;;;;4993379;28;20034;-80
2023/08/04 10:07:23;;;;;;;1.58;1.02;;;19.40;99.90;;;;;;4988840;28;20031;-81
2023/08/04 10:09:49;;;;;;;2.72;1.30;;;19.40;99.90;;;;;;4986515;28;20492;-82
2023/08/04 10:12:17;;;;;;;1.88;1.10;;;19.60;99.90;;;;;;4993422;28;20070;-82
2023/08/04 10:14:44;;;;;;;1.85;0.90;;;19.80;99.90;;;;;;4993738;28;20506;-81
2023/08/04 10:17:28;;;;;;;1.35;0.85;;;20.00;99.90;;;;;;4988451;28;20415;-80
2023/08/04 10:20:05;;;;;;;2.28;1.00;;;20.10;99.90;;;;;;4989835;28;20030;-83
2023/08/04 10:22:32;;;;;;;0.80;0.80;;;20.20;99.90;;;;;;4989195;28;20037;-82
2023/08/04 10:24:58;;;;;;;3.08;1.10;;;20.20;99.90;;;;;;4988695;28;20030;-84
2023/08/04 10:27:24;;;;;;;1.23;0.88;;;20.10;99.90;;;;;;4992350;28;20375;-81
2023/08/04 10:30:24;;;;;;;3.47;1.15;;;20.00;99.90;;;;;;4976845;28;20133;-81
2023/08/04 10:32:50;;;;;;;0.63;0.63;;;19.80;99.90;;;;;;4947602;28;20035;-79
2023/08/04 10:35:18;;;;;;;1.58;1.23;;;19.60;99.90;;;;;;4967656;28;20045;-82
2023/08/04 10:37:50;;;;;;;1.42;0.90;;;19.40;99.90;;;;;;4981327;28;20117;-79
2023/08/04 10:40:32;;;;;;;2.45;1.27;;;19.20;99.90;;;;;;4980654;28;20058;-82
2023/08/04 10:42:59;;;;;;;1.08;0.93;;;19.00;99.90;;;;;;4986114;28;20046;-80
2023/08/04 10:46:13;;;;;;;1.23;1.13;;;18.90;99.90;;;;;;4949392;28;20053;-80
2023/08/04 10:48:40;;;;;;;2.38;1.10;;;18.80;99.90;;;;;;4987902;28;20026;-81
2023/08/04 10:51:08;;;;;;;1.23;0.90;;;18.80;99.90;;;;;;4978849;28;20023;-80
2023/08/04 10:53:35;;;;;;;1.20;0.60;;;18.80;99.90;;;;;;4954478;28;20485;-80
2023/08/04 10:56:04;;;;;;;0.73;0.73;;;18.80;99.90;;;;;;4983476;28;20097;-79
2023/08/04 10:58:30;;;;;;;0.90;0.85;;;18.80;99.90;;;;;;4953656;28;20034;-80
2023/08/04 11:00:56;;;;;;;1.58;1.00;;;18.80;99.90;;;;;;4983263;28;20045;-83
2023/08/04 11:03:25;;;;;;;1.13;0.90;;;18.90;99.90;;;;;;4974978;28;20552;-79
2023/08/04 11:05:53;;;;;;;1.55;0.90;;;18.90;99.90;;;;;;4966498;28;20033;-84
2023/08/04 11:08:20;;;;;;;1.05;0.95;;;18.90;99.90;;;;;;4975807;28;20023;-83
2023/08/04 11:10:53;;;;;;;0.93;0.90;;;19.00;99.90;;;;;;4952506;28;20050;-79
2023/08/04 11:13:21;;;;;;;1.05;0.70;;;19.10;99.90;;;;;;4978488;28;20155;-82
2023/08/04 11:15:48;;;;;;;1.10;0.80;;;19.10;99.90;;;;;;4973500;28;20051;-79
2023/08/04 11:18:29;;;;;;;0.80;0.80;;;19.10;99.90;;;;;;4983601;28;20398;-82
2023/08/04 11:21:00;;;;;;;2.17;0.70;;;19.10;99.90;;;;;;4982042;28;20061;-83
2023/08/04 11:23:28;;;;;;;1.83;1.05;;;19.10;99.90;;;;;;4963422;28;20031;-82
2023/08/04 11:25:55;;;;;;;1.27;0.85;;;19.20;99.90;;;;;;4984141;28;20551;-78
2023/08/04 11:28:22;;;;;;;3.08;1.02;;;19.20;99.90;;;;;;4983504;28;20054;-80
2023/08/04 11:30:48;;;;;;;2.47;0.80;;;19.20;99.90;;;;;;4966646;28;20034;-82
2023/08/04 11:33:16;;;;;;;2.22;1.00;;;19.20;99.90;;;;;;4981561;28;20035;-82
2023/08/04 11:35:44;;;;;;;1.27;0.70;;;19.30;99.90;;;;;;4989386;28;20611;-86
2023/08/04 11:38:10;;;;;;;1.65;0.80;;;19.40;99.90;;;;;;4990761;28;20102;-79
2023/08/04 11:40:37;;;;;;;1.42;0.80;;;19.40;99.90;;;;;;4972396;28;20464;-82
2023/08/04 11:43:04;;;;;;;1.27;1.00;;;19.50;99.90;;;;;;4990961;28;20073;-84
2023/08/04 11:45:31;;;;;;;1.08;0.90;;;19.60;99.90;;;;;;4985747;28;20027;-81
2023/08/04 11:47:58;;;;;;;0.70;0.70;;;19.70;99.90;;;;;;4991876;28;20031;-81
2023/08/04 11:50:25;;;;;;;1.73;0.90;;;19.70;99.90;;;;;;4982359;28;20026;-83
2023/08/04 11:52:51;;;;;;;0.90;0.65;;;19.70;99.90;;;;;;4989638;28;20076;-83
2023/08/04 11:55:17;;;;;;;1.27;0.93;;;19.70;99.90;;;;;;4965113;28;20035;-83
2023/08/04 11:57:51;;;;;;;1.27;0.95;;;19.60;99.90;;;;;;4984126;28;20034;-81
2023/08/04 12:00:16;;;;;;;1.35;0.95;;;19.60;99.90;;;;;;4987597;28;20648;-82
2023/08/04 12:03:00;;;;;;;0.65;0.60;;;19.60;99.90;;;;;;4990786;28;20098;-83
2023/08/04 12:05:31;;;;;;;0.73;0.60;;;19.70;99.90;;;;;;4988301;28;20034;-82
2023/08/04 12:08:13;;;;;;;1.65;0.60;;;19.80;99.90;;;;;;4972130;28;20031;-82
2023/08/04 12:10:39;;;;;;;1.80;0.70;;;19.80;99.90;;;;;;4987021;28;20033;-82
2023/08/04 12:13:05;;;;;;;1.65;0.57;;;19.80;99.90;;;;;;4989128;28;20034;-84
2023/08/04 12:15:53;;;;;;;0.98;0.75;;;19.70;99.90;;;;;;4971269;28;20035;-82
2023/08/04 12:18:24;;;;;;;0.80;0.60;;;19.70;99.90;;;;;;4986315;28;20384;-83
2023/08/04 12:20:49;;;;;;;0.60;0.60;;;19.70;99.90;;;;;;4979920;28;20039;-80
2023/08/04 12:23:15;;;;;;;0.70;0.60;;;19.70;99.90;;;;;;4984231;28;20724;-81
2023/08/04 12:25:41;;;;;;;0.90;0.70;;;19.70;99.90;;;;;;4977055;28;20034;-78
2023/08/04 12:28:07;;;;;;;1.20;0.70;;;19.80;99.90;;;;;;4983243;28;20287;-81
2023/08/04 12:30:33;;;;;;;1.33;0.70;;;19.70;99.90;;;;;;4978885;28;20047;-81
2023/08/04 12:32:58;;;;;;;0.85;0.70;;;19.70;99.90;;;;;;4982202;28;20019;-79
2023/08/04 12:35:24;;;;;;;1.15;0.90;;;19.80;99.90;;;;;;4975168;28;20463;-80
2023/08/04 12:37:50;;;;;;;0.93;0.50;;;19.70;99.90;;;;;;4983576;28;20042;-78
2023/08/04 12:40:16;;;;;;;1.73;0.80;;;19.70;99.90;;;;;;4989019;28;20037;-78
2023/08/04 12:42:41;;;;;;;0.65;0.65;;;19.60;99.90;;;;;;4965667;28;20062;-78
2023/08/04 12:45:07;;;;;;;0.60;0.60;;;19.50;99.90;;;;;;4972829;28;20439;-80
2023/08/04 12:47:33;;;;;;;0.40;0.40;;;19.60;99.90;;;;;;4985545;28;20094;-80
2023/08/04 12:49:59;;;;;;;1.48;0.70;;;19.70;99.90;;;;;;4990433;28;20026;-80